Time;durP1;ratioP1;P1;durP2;ratioP2;P2;SDS_P1;SDS_P2;PMS_P1;PMS_P2;Temp;Humidity;BMP_temperature;BMP_pressure;BME280_temperature;BME280_humidity;BME280_pressure;Samples;Min_cycle;Max_cycle;Signal;HPM_P1;HPM_P2
2022/01/06 00:01:03;;;;;;;3.40;2.10;;;;;;;5.14;78.58;97376.73;104803;1271;75837;-22
2022/01/06 00:03:31;;;;;;;2.90;2.20;;;;;;;5.11;78.06;97372.73;105036;1271;73416;-24
2022/01/06 00:06:04;;;;;;;3.80;2.20;;;;;;;4.86;78.61;97365.68;105096;1271;61131;-24
2022/01/06 00:08:34;;;;;;;4.40;1.70;;;;;;;4.54;79.42;97363.08;104850;1274;61752;-25
2022/01/06 00:11:05;;;;;;;2.60;1.90;;;;;;;4.19;80.80;97365.23;104909;1271;76122;-24
2022/01/06 00:14:34;;;;;;;2.50;1.60;;;;;;;4.04;81.63;97372.58;104763;1271;75667;-24
2022/01/06 00:24:24;;;;;;;2.80;1.70;;;;;;;4.50;79.44;97370.60;105006;1274;75418;-24
2022/01/06 00:26:52;;;;;;;2.10;1.50;;;;;;;4.26;80.21;97375.67;105071;1271;75976;-24
2022/01/06 00:29:21;;;;;;;1.80;1.10;;;;;;;4.05;81.00;97374.64;105116;1270;73072;-25
2022/01/06 00:31:50;;;;;;;2.30;1.50;;;;;;;4.43;80.48;97375.10;104971;1271;62089;-24
2022/01/06 00:34:18;;;;;;;2.00;1.40;;;;;;;4.94;78.75;97371.05;104920;1271;61026;-24
2022/01/06 00:36:47;;;;;;;2.20;1.30;;;;;;;4.99;77.97;97370.52;104695;1272;75718;-22
2022/01/06 00:39:16;;;;;;;1.70;1.30;;;;;;;4.82;78.42;97358.80;105134;1271;74987;-23
2022/01/06 00:41:44;;;;;;;1.30;1.00;;;;;;;4.61;78.81;97357.11;105055;1270;74380;-24
2022/01/06 00:44:14;;;;;;;1.80;1.20;;;;;;;4.36;79.33;97362.15;104682;1274;61014;-23
2022/01/06 00:46:44;;;;;;;1.60;1.30;;;;;;;4.17;80.12;97360.12;104838;1274;61222;-21
2022/01/06 00:49:13;;;;;;;4.00;1.50;;;;;;;4.57;79.63;97364.36;105082;1271;74651;-23
2022/01/06 00:51:41;;;;;;;1.20;0.90;;;;;;;4.98;78.47;97364.58;104877;1271;74244;-23
2022/01/06 00:54:10;;;;;;;1.10;1.00;;;;;;;4.92;78.15;97363.02;104889;1271;74207;-22
2022/01/06 00:56:38;;;;;;;2.60;1.30;;;;;;;4.69;78.64;97377.45;105081;1274;61198;-23
2022/01/06 00:59:06;;;;;;;2.70;1.40;;;;;;;4.45;79.46;97385.45;105171;1271;61153;-23
2022/01/06 01:01:35;;;;;;;1.60;1.00;;;;;;;4.23;80.66;97387.41;105085;1271;75000;-23
2022/01/06 01:04:04;;;;;;;1.50;1.30;;;;;;;4.64;80.20;97387.66;105108;1272;75104;-23
2022/01/06 01:06:33;;;;;;;1.30;0.80;;;;;;;5.07;78.24;97380.25;105011;1271;73108;-23
2022/01/06 01:09:01;;;;;;;1.30;1.10;;;;;;;4.98;78.08;97385.55;104843;1271;61147;-23
2022/01/06 01:11:29;;;;;;;1.70;1.30;;;;;;;4.70;79.06;97393.23;104945;1271;61031;-24
2022/01/06 01:14:07;;;;;;;2.20;1.50;;;;;;;4.38;80.17;97395.47;104923;1274;74930;-23
2022/01/06 01:16:35;;;;;;;2.80;1.70;;;;;;;4.10;81.35;97384.20;104842;1271;74874;-24
2022/01/06 01:19:10;;;;;;;1.60;1.10;;;;;;;3.97;82.14;97374.60;104863;1271;73062;-24
2022/01/06 01:21:39;;;;;;;2.70;1.30;;;;;;;4.41;80.92;97368.05;104786;1271;61039;-24
2022/01/06 01:24:09;;;;;;;2.10;1.80;;;;;;;4.78;79.53;97379.15;104664;1271;61157;-24
2022/01/06 01:26:38;;;;;;;5.90;2.10;;;;;;;4.71;79.47;97382.96;104857;1271;74756;-24
2022/01/06 01:29:13;;;;;;;2.70;1.70;;;;;;;4.50;79.89;97391.90;104976;1271;76408;-24
2022/01/06 01:31:47;;;;;;;1.90;1.40;;;;;;;4.26;80.87;97391.11;104756;1271;73188;-24
2022/01/06 01:34:21;;;;;;;3.00;1.90;;;;;;;4.14;81.67;97386.28;104694;1271;61161;-24
2022/01/06 01:36:55;;;;;;;3.60;2.00;;;;;;;4.62;80.33;97387.98;104702;1274;61171;-24
2022/01/06 01:39:23;;;;;;;3.10;2.30;;;;;;;4.78;79.53;97377.58;104914;1271;75332;-24
2022/01/06 01:41:51;;;;;;;3.70;2.40;;;;;;;4.62;79.90;97381.52;104847;1271;74096;-23
2022/01/06 01:44:21;;;;;;;4.70;2.80;;;;;;;4.39;80.59;97386.47;104868;1271;74222;-24
2022/01/06 01:47:02;;;;;;;3.50;2.40;;;;;;;4.21;81.46;97385.52;104909;1271;61248;-24
2022/01/06 01:49:48;;;;;;;5.10;2.70;;;;;;;4.10;82.15;97380.05;104657;1274;61137;-23
2022/01/06 01:52:16;;;;;;;3.90;2.90;;;;;;;4.62;80.45;97387.00;104959;1271;74288;-24
2022/01/06 01:54:44;;;;;;;5.80;2.80;;;;;;;4.74;79.71;97391.16;105031;1271;75730;-26
2022/01/06 01:57:13;;;;;;;6.40;4.00;;;;;;;4.58;80.16;97391.95;104895;1271;74599;-24
2022/01/06 01:59:42;;;;;;;5.00;3.50;;;;;;;4.35;80.97;97392.58;104976;1271;62194;-23
2022/01/06 02:02:10;;;;;;;4.20;2.80;;;;;;;4.10;82.04;97397.59;105043;1271;61135;-24
2022/01/06 02:04:39;;;;;;;5.00;4.00;;;;;;;4.19;82.05;97395.15;104962;1270;75840;-23
2022/01/06 02:07:07;;;;;;;4.90;3.20;;;;;;;4.49;80.74;97391.14;104729;1274;76113;-24
2022/01/06 02:09:35;;;;;;;5.60;2.60;;;;;;;4.61;80.34;97393.13;104994;1271;74771;-24
2022/01/06 02:12:05;;;;;;;5.70;3.70;;;;;;;4.41;80.62;97384.42;104799;1271;61008;-24
2022/01/06 02:14:35;;;;;;;5.20;3.50;;;;;;;3.96;82.45;97380.17;104772;1271;61937;-23
2022/01/06 02:17:03;;;;;;;4.90;2.40;;;;;;;3.83;83.43;97390.61;104970;1271;74539;-24
2022/01/06 02:19:32;;;;;;;3.70;2.50;;;;;;;4.39;81.20;97394.90;104881;1271;74919;-23
2022/01/06 02:22:01;;;;;;;4.90;2.90;;;;;;;4.38;80.52;97384.29;104782;1271;73197;-23
2022/01/06 02:24:29;;;;;;;4.10;3.00;;;;;;;4.14;81.66;97390.38;104907;1271;62643;-24
2022/01/06 02:26:58;;;;;;;4.70;3.20;;;;;;;4.07;81.80;97388.73;104897;1271;61127;-24
2022/01/06 02:29:26;;;;;;;4.70;3.10;;;;;;;3.84;82.80;97403.27;104897;1271;75564;-24
2022/01/06 02:31:54;;;;;;;5.10;3.70;;;;;;;3.96;82.86;97404.73;104871;1271;75849;-24
2022/01/06 02:34:22;;;;;;;5.70;3.80;;;;;;;4.15;81.90;97407.11;104795;1271;74151;-24
2022/01/06 02:36:51;;;;;;;4.70;3.50;;;;;;;4.27;81.06;97404.09;104725;1271;61105;-24
2022/01/06 02:39:19;;;;;;;7.20;3.80;;;;;;;4.19;81.46;97409.56;104938;1271;61144;-23
2022/01/06 02:41:47;;;;;;;4.60;2.50;;;;;;;3.99;82.37;97422.45;105009;1270;75629;-24
2022/01/06 02:44:19;;;;;;;7.00;4.40;;;;;;;4.13;81.92;97423.95;105142;1271;75996;-23
2022/01/06 02:46:48;;;;;;;5.40;4.10;;;;;;;4.52;80.37;97426.08;105079;1271;71728;-23
2022/01/06 02:49:16;;;;;;;6.30;4.20;;;;;;;4.48;80.37;97428.33;105107;1271;62822;-24
2022/01/06 02:51:44;;;;;;;6.10;4.50;;;;;;;4.14;81.23;97417.50;104978;1271;62015;-24
2022/01/06 02:54:13;;;;;;;6.20;4.00;;;;;;;3.84;82.77;97420.45;104934;1271;75800;-24
2022/01/06 02:56:43;;;;;;;5.90;4.30;;;;;;;3.66;83.32;97416.54;104693;1271;75172;-24
2022/01/06 02:59:11;;;;;;;3.70;2.40;;;;;;;3.22;80.24;97430.89;105007;1271;73620;-23
2022/01/06 03:01:40;;;;;;;5.80;2.40;;;;;;;3.02;77.72;97453.34;104926;1271;62115;-24
2022/01/06 03:04:10;;;;;;;4.30;1.90;;;;;;;2.76;77.36;97448.27;104913;1271;61857;-24
2022/01/06 03:06:39;;;;;;;4.00;1.80;;;;;;;2.37;77.29;97461.38;104911;1271;75554;-24
2022/01/06 03:09:07;;;;;;;3.80;2.00;;;;;;;2.28;77.26;97456.23;104953;1271;76026;-24
2022/01/06 03:11:43;;;;;;;;;;;;;;;2.10;77.56;97454.96;105073;1271;74432;-24
2022/01/06 03:14:11;;;;;;;3.30;1.40;;;;;;;2.37;75.71;97457.48;105002;1271;61832;-24
2022/01/06 03:16:40;;;;;;;5.40;1.70;;;;;;;2.49;74.98;97472.64;104771;1271;61065;-24
2022/01/06 03:19:08;;;;;;;4.00;2.00;;;;;;;2.23;75.03;97475.02;104745;1271;73600;-24
2022/01/06 03:21:37;;;;;;;4.20;1.90;;;;;;;2.05;75.21;97489.02;104938;1271;77464;-24
2022/01/06 03:24:05;;;;;;;4.10;1.80;;;;;;;1.72;76.64;97499.71;104879;1271;74403;-24
2022/01/06 03:26:33;;;;;;;4.80;1.60;;;;;;;1.63;77.44;97504.63;104793;1272;61279;-24
2022/01/06 03:29:02;;;;;;;4.90;2.20;;;;;;;1.85;76.79;97504.94;104896;1271;61035;-25
2022/01/06 03:31:31;;;;;;;5.20;1.70;;;;;;;2.17;75.52;97505.91;104638;1271;74127;-24
2022/01/06 03:33:59;;;;;;;5.30;1.80;;;;;;;2.16;75.99;97515.62;104913;1271;74949;-24
2022/01/06 03:36:28;;;;;;;5.30;1.50;;;;;;;1.88;77.43;97515.52;104876;1273;73233;-24
2022/01/06 03:38:56;;;;;;;5.80;2.00;;;;;;;1.75;78.42;97526.51;104918;1271;61258;-24
2022/01/06 03:41:24;;;;;;;2.10;1.50;;;;;;;1.74;78.88;97529.31;104962;1271;61163;-24
2022/01/06 03:43:53;;;;;;;4.10;2.00;;;;;;;1.96;77.94;97527.48;104755;1269;565767;-24
2022/01/06 03:46:21;;;;;;;3.50;1.60;;;;;;;2.07;76.83;97526.31;105119;1271;75019;-23
2022/01/06 03:48:50;;;;;;;4.70;1.90;;;;;;;1.86;77.42;97532.97;105107;1271;73402;-23
2022/01/06 03:51:20;;;;;;;6.00;1.80;;;;;;;1.61;77.35;97520.48;105122;1271;61084;-23
2022/01/06 03:53:50;;;;;;;5.00;1.80;;;;;;;1.44;77.89;97531.86;105154;1271;62472;-23
2022/01/06 03:56:18;;;;;;;6.10;2.20;;;;;;;1.28;78.08;97531.58;105061;1271;75569;-24
2022/01/06 03:58:48;;;;;;;3.60;1.70;;;;;;;1.49;77.80;97541.48;105001;1271;74849;-24
2022/01/06 04:01:17;;;;;;;3.00;1.40;;;;;;;1.77;76.68;97551.88;105085;1271;74374;-24
2022/01/06 04:03:47;;;;;;;3.50;1.90;;;;;;;1.85;76.70;97557.46;104985;1271;61044;-24
2022/01/06 04:06:15;;;;;;;3.20;1.50;;;;;;;1.72;77.03;97561.78;104811;1271;61786;-24
2022/01/06 04:08:44;;;;;;;6.50;2.40;;;;;;;1.47;77.61;97559.20;104893;1271;75853;-24
2022/01/06 04:11:13;;;;;;;3.90;2.10;;;;;;;1.34;78.58;97558.05;104918;1271;76022;-23
2022/01/06 04:13:41;;;;;;;2.60;1.30;;;;;;;1.37;78.68;97556.96;104908;1271;74345;-23
2022/01/06 04:16:13;;;;;;;2.20;1.50;;;;;;;1.88;77.15;97561.70;104884;1270;61752;-24
2022/01/06 04:18:44;;;;;;;5.40;2.20;;;;;;;2.05;76.63;97556.14;104785;1271;61102;-24
2022/01/06 04:21:12;;;;;;;2.80;1.60;;;;;;;1.94;76.69;97559.63;104927;1271;73631;-23
2022/01/06 04:23:40;;;;;;;5.90;2.20;;;;;;;1.61;77.66;97557.07;104900;1271;76195;-23
2022/01/06 04:26:09;;;;;;;4.90;2.50;;;;;;;1.52;78.36;97562.11;104975;1271;74389;-23
2022/01/06 04:28:37;;;;;;;3.00;2.30;;;;;;;1.42;78.32;97571.53;104950;1271;62689;-23
2022/01/06 04:31:06;;;;;;;2.40;1.80;;;;;;;1.80;77.03;97569.16;104702;1274;61192;-24
2022/01/06 04:33:35;;;;;;;2.60;1.40;;;;;;;2.11;75.20;97569.34;104708;1274;74351;-23
2022/01/06 04:36:04;;;;;;;3.40;2.00;;;;;;;2.02;74.70;97568.80;104820;1273;74838;-24
2022/01/06 04:38:33;;;;;;;5.20;2.10;;;;;;;1.63;75.67;97574.72;105003;1274;72931;-23
2022/01/06 04:41:03;;;;;;;7.20;2.50;;;;;;;1.47;76.31;97584.89;104818;1274;61181;-23
2022/01/06 04:43:31;;;;;;;3.60;1.60;;;;;;;1.27;76.84;97590.96;104674;1274;62066;-24
2022/01/06 04:46:00;;;;;;;3.50;2.40;;;;;;;0.94;77.67;97591.80;104683;1274;75487;-24
2022/01/06 04:48:29;;;;;;;3.80;1.90;;;;;;;0.87;78.16;97591.23;104649;1274;75056;-23
2022/01/06 04:50:57;;;;;;;5.00;2.00;;;;;;;1.36;76.62;97585.45;104855;1274;74486;-23
2022/01/06 04:53:25;;;;;;;4.20;1.80;;;;;;;1.39;75.96;97589.48;104889;1274;61162;-23
2022/01/06 04:55:54;;;;;;;3.20;1.80;;;;;;;1.46;75.71;97593.65;104790;1274;62077;-23
2022/01/06 04:58:23;;;;;;;4.00;1.70;;;;;;;1.21;76.39;97598.73;104819;1273;74805;-23
2022/01/06 05:00:51;;;;;;;4.20;1.90;;;;;;;0.98;77.17;97605.17;104741;1274;75312;-23
2022/01/06 05:03:19;;;;;;;4.50;3.30;;;;;;;0.82;77.97;97610.16;104922;1273;74307;-23
2022/01/06 05:05:47;;;;;;;3.80;1.40;;;;;;;0.67;78.67;97605.66;104953;1273;62573;-23
2022/01/06 05:08:16;;;;;;;3.50;1.80;;;;;;;1.07;77.61;97611.12;104862;1274;62112;-23
2022/01/06 05:10:44;;;;;;;3.40;1.40;;;;;;;1.52;75.89;97612.61;105138;1274;75220;-23
2022/01/06 05:13:12;;;;;;;2.40;1.40;;;;;;;1.51;75.44;97611.94;105112;1274;75801;-23
2022/01/06 05:15:41;;;;;;;5.20;1.20;;;;;;;1.27;76.18;97615.62;104966;1274;73291;-25
2022/01/06 05:18:09;;;;;;;2.90;1.50;;;;;;;1.02;76.74;97613.66;105113;1274;61116;-25
2022/01/06 05:20:40;;;;;;;3.50;1.50;;;;;;;0.76;78.01;97608.81;104967;1274;61163;-23
2022/01/06 05:23:10;;;;;;;4.20;1.60;;;;;;;0.61;78.46;97611.14;105073;1274;74678;-25
2022/01/06 05:25:39;;;;;;;4.60;1.80;;;;;;;0.40;79.53;97613.31;104839;1274;75951;-25
2022/01/06 05:28:07;;;;;;;3.00;1.70;;;;;;;0.83;78.71;97613.50;104989;1274;74803;-23
2022/01/06 05:30:36;;;;;;;4.40;1.70;;;;;;;1.35;76.67;97615.92;104773;1272;61155;-25
2022/01/06 05:33:04;;;;;;;3.20;2.00;;;;;;;1.29;76.26;97621.61;104853;1271;61124;-25
2022/01/06 05:35:33;;;;;;;4.30;2.00;;;;;;;1.08;77.31;97626.76;104726;1274;75371;-24
2022/01/06 05:38:01;;;;;;;4.60;2.40;;;;;;;0.88;77.71;97630.77;104793;1272;74818;-25
2022/01/06 05:40:29;;;;;;;5.10;2.20;;;;;;;0.50;79.05;97631.61;104799;1272;73001;-24
2022/01/06 05:42:58;;;;;;;4.60;2.50;;;;;;;0.37;79.73;97635.33;104979;1271;61118;-24
2022/01/06 05:45:28;;;;;;;6.90;2.60;;;;;;;0.40;79.45;97632.60;105140;1274;61125;-23
2022/01/06 05:47:56;;;;;;;3.50;1.90;;;;;;;1.09;77.14;97629.62;104818;1274;73626;-24
2022/01/06 05:50:24;;;;;;;3.40;1.70;;;;;;;1.32;75.37;97637.65;104774;1274;75034;-24
2022/01/06 05:52:54;;;;;;;3.90;2.60;;;;;;;1.21;75.31;97647.83;104738;1273;73402;-24
2022/01/06 05:55:23;;;;;;;6.80;2.90;;;;;;;0.94;75.49;97647.98;104713;1274;61326;-23
2022/01/06 05:57:51;;;;;;;5.00;2.30;;;;;;;0.73;76.66;97659.38;104819;1274;61192;-23
2022/01/06 06:00:19;;;;;;;3.20;2.20;;;;;;;0.50;77.36;97663.05;104663;1274;74017;-23
2022/01/06 06:02:48;;;;;;;4.30;2.30;;;;;;;0.32;77.81;97668.11;104805;1274;75349;-23
2022/01/06 06:05:17;;;;;;;4.20;2.60;;;;;;;0.16;78.37;97669.77;104727;1274;74428;-23
2022/01/06 06:07:45;;;;;;;7.20;2.70;;;;;;;0.63;77.54;97670.48;104952;1274;61129;-23
2022/01/06 06:10:14;;;;;;;4.40;2.50;;;;;;;1.20;75.31;97661.88;105119;1274;61015;-23
2022/01/06 06:12:43;;;;;;;5.00;2.80;;;;;;;1.30;74.52;97661.41;104925;1274;73294;-23
2022/01/06 06:15:14;;;;;;;4.10;2.70;;;;;;;1.05;74.91;97666.60;104806;1274;76019;-24
2022/01/06 06:17:48;;;;;;;;;;;;;;;0.80;75.68;97663.41;104673;1274;74493;-23
2022/01/06 06:20:19;;;;;;;3.60;2.00;;;;;;;0.55;76.66;97663.75;104873;1274;61032;-25
2022/01/06 06:22:47;;;;;;;5.20;2.50;;;;;;;0.34;77.33;97663.52;105122;1272;61061;-25
2022/01/06 06:25:16;;;;;;;4.10;2.60;;;;;;;0.15;78.00;97664.70;104983;1274;73739;-25
2022/01/06 06:27:44;;;;;;;7.50;3.00;;;;;;;0.01;78.56;97663.80;104882;1274;74955;-23
2022/01/06 06:30:12;;;;;;;7.00;2.80;;;;;;;0.53;77.80;97666.47;104849;1274;73573;-23
2022/01/06 06:32:41;;;;;;;9.40;3.20;;;;;;;1.18;75.65;97676.39;104894;1274;61039;-23
2022/01/06 06:35:09;;;;;;;6.50;2.40;;;;;;;1.28;74.71;97681.89;105115;1274;62274;-23
2022/01/06 06:37:37;;;;;;;5.30;2.50;;;;;;;1.10;74.73;97680.48;104924;1274;74526;-23
2022/01/06 06:40:07;;;;;;;4.50;2.20;;;;;;;0.87;75.20;97683.95;105196;1273;73008;-23
2022/01/06 06:42:35;;;;;;;4.40;3.10;;;;;;;0.66;76.20;97681.04;105089;1274;74121;-23
2022/01/06 06:45:04;;;;;;;4.90;2.70;;;;;;;0.45;76.24;97678.73;104867;1274;61163;-25
2022/01/06 06:47:34;;;;;;;5.80;2.90;;;;;;;0.25;76.86;97676.69;104643;1272;61118;-25
2022/01/06 06:50:03;;;;;;;4.10;1.90;;;;;;;0.09;77.45;97674.42;104861;1274;74502;-25
2022/01/06 06:52:35;;;;;;;5.70;2.60;;;;;;;0.56;76.91;97676.32;104806;1274;75997;-23
2022/01/06 06:55:04;;;;;;;5.90;2.60;;;;;;;1.22;75.44;97675.96;105097;1274;74210;-23
2022/01/06 06:57:33;;;;;;;7.10;2.80;;;;;;;1.32;74.53;97679.70;104876;1273;61051;-23
2022/01/06 07:00:03;;;;;;;5.80;3.10;;;;;;;1.15;74.56;97682.05;104883;1272;60982;-23
2022/01/06 07:02:32;;;;;;;6.00;3.00;;;;;;;0.90;75.09;97689.24;104633;1274;75289;-24
2022/01/06 07:05:01;;;;;;;4.40;2.90;;;;;;;0.65;75.72;97685.33;104891;1272;74991;-24
2022/01/06 07:07:31;;;;;;;7.10;3.50;;;;;;;0.43;76.45;97681.75;105050;1274;74463;-24
2022/01/06 07:09:59;;;;;;;5.50;3.30;;;;;;;0.23;77.36;97684.38;104732;1274;61112;-24
2022/01/06 07:12:28;;;;;;;3.00;1.90;;;;;;;0.10;77.50;97682.20;104825;1274;61028;-24
2022/01/06 07:14:58;;;;;;;8.20;3.30;;;;;;;0.57;77.07;97683.09;104872;1274;74482;-24
2022/01/06 07:17:26;;;;;;;7.20;3.50;;;;;;;1.22;75.15;97677.96;104654;1274;75989;-24
2022/01/06 07:19:54;;;;;;;6.40;3.10;;;;;;;1.36;74.71;97678.83;104720;1274;75259;-24
2022/01/06 07:22:22;;;;;;;8.90;2.80;;;;;;;1.23;74.65;97679.16;104762;1274;61833;-23
2022/01/06 07:24:50;;;;;;;5.80;2.70;;;;;;;1.01;75.01;97691.48;104904;1272;60965;-22
2022/01/06 07:27:19;;;;;;;5.20;2.30;;;;;;;0.77;75.88;97700.66;104775;1274;75301;-25
2022/01/06 07:29:47;;;;;;;4.80;2.50;;;;;;;0.50;77.19;97700.78;104879;1273;75916;-24
2022/01/06 07:32:15;;;;;;;4.30;3.10;;;;;;;0.28;78.01;97696.67;104850;1274;70422;-24
2022/01/06 07:34:44;;;;;;;4.70;2.60;;;;;;;0.20;78.78;97699.55;105120;1272;61851;-20
2022/01/06 07:37:12;;;;;;;4.90;2.90;;;;;;;0.73;78.01;97696.14;105070;1274;62119;-25
2022/01/06 07:39:40;;;;;;;5.10;2.60;;;;;;;1.35;75.46;97698.22;104783;1274;75535;-25
2022/01/06 07:42:09;;;;;;;5.20;2.80;;;;;;;1.51;74.84;97702.63;104650;1274;75178;-25
2022/01/06 07:44:37;;;;;;;5.80;2.90;;;;;;;1.43;74.85;97698.71;104666;1274;75918;-25
2022/01/06 07:47:06;;;;;;;6.30;3.60;;;;;;;1.51;74.81;97692.34;104912;1274;61112;-24
2022/01/06 07:49:35;;;;;;;8.90;3.50;;;;;;;1.62;74.90;97698.30;104856;1273;62166;-26
2022/01/06 07:52:04;;;;;;;6.00;3.60;;;;;;;1.74;74.51;97702.67;105030;1274;75141;-24
2022/01/06 07:54:32;;;;;;;4.20;2.30;;;;;;;1.78;73.79;97697.74;105075;1272;76192;-26
2022/01/06 07:57:02;;;;;;;4.40;2.80;;;;;;;1.74;73.89;97689.70;104915;1274;74578;-25
2022/01/06 07:59:30;;;;;;;7.40;2.80;;;;;;;1.83;74.06;97690.27;104882;1274;60996;-26
2022/01/06 08:01:59;;;;;;;4.40;2.50;;;;;;;1.93;73.53;97688.05;105159;1274;61048;-23
2022/01/06 08:04:27;;;;;;;7.90;4.10;;;;;;;1.93;73.08;97690.27;104938;1274;75313;-24
2022/01/06 08:06:55;;;;;;;6.10;3.60;;;;;;;1.93;72.91;97689.74;104964;1274;76173;-23
2022/01/06 08:09:24;;;;;;;5.80;3.40;;;;;;;1.77;73.43;97690.65;105145;1274;72901;-24
2022/01/06 08:11:52;;;;;;;6.30;3.00;;;;;;;1.67;73.72;97689.13;104843;1274;61362;-23
2022/01/06 08:14:33;;;;;;;7.70;3.00;;;;;;;1.67;74.52;97684.70;104653;1274;61130;-24
2022/01/06 08:17:02;;;;;;;5.50;2.80;;;;;;;1.76;74.61;97684.95;104854;1271;75645;-23
2022/01/06 08:19:31;;;;;;;7.80;2.60;;;;;;;1.78;74.45;97690.43;104827;1271;75856;-24
2022/01/06 08:21:59;;;;;;;7.40;2.70;;;;;;;1.81;74.65;97697.21;104833;1274;74479;-23
2022/01/06 08:24:27;;;;;;;6.30;2.40;;;;;;;2.38;73.29;97703.64;104771;1273;61148;-25
2022/01/06 08:26:56;;;;;;;4.00;2.70;;;;;;;2.97;70.96;97709.16;104769;1272;61792;-24
2022/01/06 08:29:24;;;;;;;4.70;2.70;;;;;;;3.13;70.01;97712.95;104746;1271;75705;-23
2022/01/06 08:31:52;;;;;;;5.40;2.80;;;;;;;3.08;70.06;97711.58;104764;1272;75858;-23
2022/01/06 08:34:21;;;;;;;3.30;2.20;;;;;;;3.01;70.04;97711.31;104890;1271;73481;-24
2022/01/06 08:36:55;;;;;;;6.90;2.70;;;;;;;2.84;70.17;97707.48;104792;1272;61115;-23
2022/01/06 08:39:23;;;;;;;5.50;2.80;;;;;;;2.67;70.66;97694.80;104654;1274;61760;-23
2022/01/06 08:41:53;;;;;;;5.50;2.60;;;;;;;2.65;71.72;97704.72;104670;1274;74670;-24
2022/01/06 08:44:21;;;;;;;5.50;2.60;;;;;;;2.67;70.88;97713.16;104764;1272;76171;-24
2022/01/06 08:46:50;;;;;;;7.90;2.70;;;;;;;2.76;71.49;97710.95;104755;1274;74530;-24
2022/01/06 08:49:19;;;;;;;4.50;2.90;;;;;;;2.64;71.19;97707.88;104791;1271;61020;-24
2022/01/06 08:51:47;;;;;;;5.50;2.70;;;;;;;2.73;71.53;97713.20;104785;1272;62035;-23
2022/01/06 08:54:15;;;;;;;3.90;2.70;;;;;;;2.86;71.03;97721.59;105092;1271;75507;-23
2022/01/06 08:56:44;;;;;;;6.70;3.10;;;;;;;2.86;70.94;97712.46;104825;1272;77448;-23
2022/01/06 08:59:12;;;;;;;10.20;2.80;;;;;;;2.62;71.18;97712.35;104795;1272;72871;-24
2022/01/06 09:01:41;;;;;;;6.20;2.70;;;;;;;2.44;71.16;97703.95;104810;1274;61084;-23
2022/01/06 09:04:09;;;;;;;3.70;2.20;;;;;;;2.24;72.12;97700.87;104730;1271;61154;-23
2022/01/06 09:06:38;;;;;;;4.20;2.20;;;;;;;2.03;72.25;97692.54;104895;1274;75974;-23
2022/01/06 09:09:06;;;;;;;5.90;2.60;;;;;;;2.05;72.25;97693.75;104779;1274;74880;-23
2022/01/06 09:11:34;;;;;;;4.10;1.80;;;;;;;2.55;70.72;97699.73;104644;1274;73408;-23
2022/01/06 09:14:03;;;;;;;3.30;1.50;;;;;;;2.58;69.82;97700.94;104824;1274;61255;-24
2022/01/06 09:16:32;;;;;;;4.70;2.30;;;;;;;2.51;70.73;97703.14;104727;1274;61656;-25
2022/01/06 09:19:00;;;;;;;4.00;2.30;;;;;;;2.28;70.85;97702.98;105169;1272;75519;-23
2022/01/06 09:21:29;;;;;;;4.00;2.60;;;;;;;2.07;71.98;97706.96;105064;1274;75140;-23
2022/01/06 09:23:59;;;;;;;6.00;2.90;;;;;;;1.94;72.89;97702.55;104991;1274;73281;-23
2022/01/06 09:26:28;;;;;;;4.70;2.60;;;;;;;1.79;73.61;97701.82;104705;1274;61138;-23
2022/01/06 09:28:57;;;;;;;4.20;2.20;;;;;;;1.68;74.56;97689.35;104697;1272;61094;-23
2022/01/06 09:31:25;;;;;;;10.60;2.40;;;;;;;2.21;73.13;97694.89;104797;1274;75685;-23
2022/01/06 09:33:54;;;;;;;8.40;2.90;;;;;;;2.57;70.86;97699.44;104809;1272;75082;-23
2022/01/06 09:36:22;;;;;;;5.20;2.30;;;;;;;2.70;71.16;97701.11;104750;1274;74888;-23
2022/01/06 09:38:51;;;;;;;4.10;1.70;;;;;;;2.74;70.99;97699.64;104750;1272;61143;-23
2022/01/06 09:41:19;;;;;;;7.20;2.80;;;;;;;2.67;70.96;97699.74;104864;1271;61022;-23
2022/01/06 09:43:49;;;;;;;7.80;3.10;;;;;;;2.56;71.92;97703.61;104812;1271;75745;-23
2022/01/06 09:46:17;;;;;;;4.50;2.70;;;;;;;2.44;71.01;97696.55;104625;1274;74976;-23
2022/01/06 09:48:46;;;;;;;4.80;2.50;;;;;;;2.30;71.47;97700.14;104827;1273;73395;-23
2022/01/06 09:51:15;;;;;;;9.20;3.50;;;;;;;2.28;73.11;97710.70;104866;1271;61127;-23
2022/01/06 09:53:43;;;;;;;4.40;1.60;;;;;;;2.16;73.53;97708.11;104772;1274;61743;-23
2022/01/06 09:56:12;;;;;;;4.20;2.40;;;;;;;2.51;73.05;97710.66;104670;1274;74303;-23
2022/01/06 09:58:41;;;;;;;8.00;2.80;;;;;;;3.06;70.27;97709.17;104672;1274;75998;-24
2022/01/06 10:01:10;;;;;;;3.10;2.10;;;;;;;3.18;69.39;97716.75;104783;1274;72724;-22
2022/01/06 10:03:42;;;;;;;2.30;1.60;;;;;;;3.04;69.24;97716.21;105092;1274;61133;-24
2022/01/06 10:06:18;;;;;;;6.20;2.70;;;;;;;2.99;70.35;97717.45;104661;1274;61039;-25
2022/01/06 10:09:01;;;;;;;4.50;2.50;;;;;;;2.82;70.92;97716.73;104627;1274;74516;-23
2022/01/06 10:11:33;;;;;;;4.40;2.90;;;;;;;2.71;72.32;97723.15;104454;1274;74921;-23
2022/01/06 10:14:10;;;;;;;8.00;2.50;;;;;;;2.50;71.92;97714.51;104611;1274;74558;-23
2022/01/06 10:16:39;;;;;;;8.40;2.70;;;;;;;2.31;72.06;97713.56;104728;1274;61792;-23
2022/01/06 10:19:10;;;;;;;6.10;3.10;;;;;;;2.17;72.51;97708.52;104746;1274;61036;-23
2022/01/06 10:21:40;;;;;;;7.00;2.80;;;;;;;2.58;71.97;97719.43;104684;1274;75577;-23
2022/01/06 10:24:10;;;;;;;4.60;2.10;;;;;;;3.07;69.70;97715.80;104684;1274;75120;-23
2022/01/06 10:26:53;;;;;;;4.80;2.30;;;;;;;3.15;70.02;97714.92;104629;1274;73286;-23
2022/01/06 10:29:22;;;;;;;8.10;2.80;;;;;;;2.96;70.23;97712.98;104643;1274;61932;-24
2022/01/06 10:31:50;;;;;;;5.60;2.70;;;;;;;2.75;71.26;97713.59;104633;1274;61049;-23
2022/01/06 10:34:19;;;;;;;5.50;2.60;;;;;;;2.64;71.14;97716.09;104790;1272;75577;-23
2022/01/06 10:36:48;;;;;;;3.90;2.50;;;;;;;2.53;71.34;97713.78;104627;1274;76198;-22
2022/01/06 10:39:17;;;;;;;5.40;2.90;;;;;;;2.49;73.48;97722.28;104823;1272;73465;-23
2022/01/06 10:41:45;;;;;;;3.50;2.10;;;;;;;2.51;72.47;97717.84;105033;1273;61618;-23
2022/01/06 10:44:14;;;;;;;5.30;2.20;;;;;;;2.99;70.73;97720.67;105136;1274;61282;-23
2022/01/06 10:46:43;;;;;;;6.40;2.60;;;;;;;3.28;69.09;97720.13;105021;1274;74348;-23
2022/01/06 10:49:15;;;;;;;2.10;1.70;;;;;;;3.46;69.10;97721.11;104631;1274;73956;-23
2022/01/06 10:51:44;;;;;;;5.70;2.80;;;;;;;3.33;68.87;97725.62;104711;1274;74471;-23
2022/01/06 10:54:23;;;;;;;5.70;3.40;;;;;;;3.10;69.21;97724.13;104882;1274;61148;-23
2022/01/06 10:57:02;;;;;;;8.00;2.60;;;;;;;2.84;70.92;97726.83;104607;1274;61902;-23
2022/01/06 10:59:35;;;;;;;4.00;2.20;;;;;;;2.75;71.08;97728.48;104758;1274;75846;-23
2022/01/06 11:02:05;;;;;;;4.10;2.90;;;;;;;2.62;71.81;97729.80;105019;1274;74908;-23
2022/01/06 11:04:34;;;;;;;6.00;2.60;;;;;;;2.58;72.43;97725.60;105053;1271;74261;-23
2022/01/06 11:07:02;;;;;;;4.10;1.90;;;;;;;2.94;71.28;97722.72;104574;1274;61230;-23
2022/01/06 11:09:30;;;;;;;6.70;3.10;;;;;;;3.53;69.10;97720.34;105049;1274;62015;-23
2022/01/06 11:14:28;;;;;;;4.60;2.10;;;;;;;3.29;68.52;97732.27;104704;1274;75752;-23
2022/01/06 11:16:56;;;;;;;6.60;3.20;;;;;;;3.06;69.64;97726.17;104938;1273;74810;-23
2022/01/06 11:19:27;;;;;;;3.60;2.30;;;;;;;2.83;69.75;97730.17;104825;1274;61007;-23
2022/01/06 11:21:59;;;;;;;5.60;2.50;;;;;;;2.74;70.06;97728.55;104794;1274;61229;-23
2022/01/06 11:24:28;;;;;;;7.50;2.50;;;;;;;2.63;71.34;97725.90;104788;1274;75968;-23
2022/01/06 11:27:00;;;;;;;4.00;2.40;;;;;;;2.56;71.54;97730.71;104981;1274;75993;-22
2022/01/06 11:29:32;;;;;;;2.90;1.50;;;;;;;2.52;71.56;97728.59;104752;1274;74878;-23
2022/01/06 11:32:16;;;;;;;4.10;2.00;;;;;;;3.08;69.68;97728.77;104864;1274;61111;-23
2022/01/06 11:34:45;;;;;;;1.50;1.30;;;;;;;3.51;68.39;97732.03;105023;1274;61216;-22
2022/01/06 11:37:14;;;;;;;2.40;1.70;;;;;;;3.53;68.39;97723.00;105120;1274;75520;-23
2022/01/06 11:39:43;;;;;;;6.70;2.90;;;;;;;3.34;69.19;97725.04;104680;1275;75079;-23
2022/01/06 11:42:23;;;;;;;6.00;2.40;;;;;;;3.13;69.45;97718.81;105135;1273;72859;-22
2022/01/06 11:44:53;;;;;;;5.60;2.50;;;;;;;2.86;69.35;97720.75;105104;1271;61150;-23
2022/01/06 11:47:33;;;;;;;5.80;2.40;;;;;;;2.74;70.20;97727.17;104901;1274;61803;-23
2022/01/06 11:50:24;;;;;;;5.40;2.50;;;;;;;2.59;71.21;97727.06;105001;1272;75472;-23
2022/01/06 11:53:00;;;;;;;3.60;2.30;;;;;;;2.46;71.14;97724.36;104806;1271;75806;-23
2022/01/06 11:55:33;;;;;;;6.00;2.30;;;;;;;2.58;71.42;97727.81;104991;1274;72486;-23